Time;durP1;ratioP1;P1;durP2;ratioP2;P2;SDS_P1;SDS_P2;PMS_P1;PMS_P2;Temp;Humidity;BMP_temperature;BMP_pressure;BME280_temperature;BME280_humidity;BME280_pressure;Samples;Min_cycle;Max_cycle;Signal;HPM_P1;HPM_P2
2022/03/29 00:00:19;;;;;;;;;;;;;;;17.34;51.07;101434.75;1031596;28;1895;-65
2022/03/29 00:01:10;;;;;;;;;;;;;;;17.33;51.24;101434.88;1031580;28;627;-65
2022/03/29 00:02:00;;;;;;;;;;;;;;;17.34;51.04;101437.44;1031734;28;623;-65
2022/03/29 00:02:50;;;;;;;;;;;;;;;17.34;51.30;101439.28;1032159;28;711;-65
2022/03/29 00:03:41;;;;;;;;;;;;;;;17.34;51.26;101433.91;1031616;28;965;-66
2022/03/29 00:04:31;;;;;;;;;;;;;;;17.33;50.99;101434.88;1031854;28;638;-65
2022/03/29 00:05:22;;;;;;;;;;;;;;;17.34;51.09;101436.59;1031609;28;631;-65
2022/03/29 00:06:12;;;;;;;;;;;;;;;17.33;50.82;101438.44;1031841;28;645;-65
2022/03/29 00:07:02;;;;;;;;;;;;;;;17.33;51.36;101437.56;1031542;28;630;-64
2022/03/29 00:07:53;;;;;;;;;;;;;;;17.32;51.30;101430.47;1035095;28;1284;-65
2022/03/29 00:08:43;;;;;;;;;;;;;;;17.31;51.08;101439.53;1032795;28;1460;-64
2022/03/29 00:09:34;;;;;;;;;;;;;;;17.30;50.88;101432.44;1035648;28;678;-64
2022/03/29 00:10:24;;;;;;;;;;;;;;;17.29;51.38;101426.19;1036467;28;630;-64
2022/03/29 00:11:17;;;;;;;;;;;;;;;17.30;51.47;101432.44;1035664;28;669;-64
2022/03/29 00:12:07;;;;;;;;;;;;;;;17.29;50.91;101428.03;1035807;28;618;-64
2022/03/29 00:12:57;;;;;;;;;;;;;;;17.30;50.82;101427.91;1036995;28;661;-64
2022/03/29 00:13:48;;;;;;;;;;;;;;;17.29;51.15;101431.59;1036465;28;646;-65
2022/03/29 00:14:38;;;;;;;;;;;;;;;17.29;51.33;101426.19;1036637;28;682;-64
2022/03/29 00:15:29;;;;;;;;;;;;;;;17.31;51.21;101431.47;1036487;28;637;-65
2022/03/29 00:16:19;;;;;;;;;;;;;;;17.30;51.16;101427.06;1035241;28;1219;-63
2022/03/29 00:17:10;;;;;;;;;;;;;;;17.29;51.00;101426.19;1030981;28;961;-65
2022/03/29 00:18:00;;;;;;;;;;;;;;;17.29;50.72;101431.59;1032572;28;1541;-63
2022/03/29 00:18:50;;;;;;;;;;;;;;;17.29;50.96;101428.03;1030757;28;815;-63
2022/03/29 00:19:41;;;;;;;;;;;;;;;17.29;50.93;101430.72;1035715;28;1174;-63
2022/03/29 00:20:31;;;;;;;;;;;;;;;17.29;51.33;101430.72;1032123;28;1899;-63
2022/03/29 00:21:22;;;;;;;;;;;;;;;17.29;50.38;101425.34;1032748;28;945;-63
2022/03/29 00:22:13;;;;;;;;;;;;;;;17.29;51.46;101425.34;1033028;28;618;-63
2022/03/29 00:23:03;;;;;;;;;;;;;;;17.28;50.99;101424.50;1031776;28;875;-64
2022/03/29 00:23:54;;;;;;;;;;;;;;;17.29;50.97;101426.19;1032548;28;751;-63
2022/03/29 00:24:44;;;;;;;;;;;;;;;17.28;51.25;101415.56;1033019;28;688;-64
2022/03/29 00:25:34;;;;;;;;;;;;;;;17.27;50.71;101414.69;1030892;28;838;-63
2022/03/29 00:26:25;;;;;;;;;;;;;;;17.28;51.06;101412.84;1032351;28;810;-63
2022/03/29 00:27:15;;;;;;;;;;;;;;;17.28;50.97;101415.56;1033000;28;1054;-64
2022/03/29 00:28:06;;;;;;;;;;;;;;;17.27;50.65;101411.16;1032935;28;874;-64
2022/03/29 00:28:56;;;;;;;;;;;;;;;17.26;51.12;101414.81;1029097;28;724;-65
2022/03/29 00:29:47;;;;;;;;;;;;;;;17.27;51.05;101419.22;1032419;28;1392;-64
2022/03/29 00:30:37;;;;;;;;;;;;;;;17.25;51.11;101415.81;1032258;28;1170;-64
2022/03/29 00:31:27;;;;;;;;;;;;;;;17.26;51.06;101409.44;1036176;28;1376;-64
2022/03/29 00:32:18;;;;;;;;;;;;;;;17.26;50.92;101406.75;1033008;28;697;-64
2022/03/29 00:33:08;;;;;;;;;;;;;;;17.25;51.23;101407.72;1031311;28;936;-64
2022/03/29 00:33:59;;;;;;;;;;;;;;;17.24;50.96;101412.25;1032832;28;786;-64
2022/03/29 00:34:49;;;;;;;;;;;;;;;17.25;51.32;101407.72;1035517;28;783;-64
2022/03/29 00:35:40;;;;;;;;;;;;;;;17.25;50.74;101403.19;1032283;28;1009;-64
2022/03/29 00:36:31;;;;;;;;;;;;;;;17.23;50.90;101397.06;1035366;28;771;-65
2022/03/29 00:37:21;;;;;;;;;;;;;;;17.23;51.11;101397.06;1032409;28;940;-63
2022/03/29 00:38:11;;;;;;;;;;;;;;;17.24;50.75;101408.69;1032919;28;987;-64
2022/03/29 00:39:02;;;;;;;;;;;;;;;17.23;51.24;101397.06;1031939;28;1081;-64
2022/03/29 00:39:52;;;;;;;;;;;;;;;17.24;51.50;101400.63;1033445;28;838;-64
2022/03/29 00:40:43;;;;;;;;;;;;;;;17.24;50.98;101396.09;1035865;28;1952;-65
2022/03/29 00:41:33;;;;;;;;;;;;;;;17.22;51.10;101389.97;1032099;28;873;-65
2022/03/29 00:42:24;;;;;;;;;;;;;;;17.22;50.97;101395.34;1033620;28;674;-64
2022/03/29 00:43:14;;;;;;;;;;;;;;;17.23;51.16;101393.53;1032565;28;1119;-64
2022/03/29 00:44:06;;;;;;;;;;;;;;;17.23;51.09;101396.22;1033563;28;759;-65
2022/03/29 00:44:56;;;;;;;;;;;;;;;17.21;51.39;101385.56;1032358;28;681;-65
2022/03/29 00:45:46;;;;;;;;;;;;;;;17.22;50.77;101391.81;1032115;28;659;-65
2022/03/29 00:46:39;;;;;;;;;;;;;;;17.22;51.03;101398.06;1032427;28;717;-65
2022/03/29 00:47:29;;;;;;;;;;;;;;;17.20;51.37;101396.47;1032602;28;653;-64
2022/03/29 00:48:20;;;;;;;;;;;;;;;17.21;50.87;101390.09;1032096;28;698;-65
2022/03/29 00:49:10;;;;;;;;;;;;;;;17.21;51.08;101392.78;1032360;28;621;-64
2022/03/29 00:50:01;;;;;;;;;;;;;;;17.21;51.23;101387.41;1032280;28;713;-64
2022/03/29 00:50:51;;;;;;;;;;;;;;;17.20;50.91;101386.56;1035590;28;1336;-64
2022/03/29 00:51:42;;;;;;;;;;;;;;;17.21;50.87;101392.78;1036196;28;682;-64
2022/03/29 00:52:32;;;;;;;;;;;;;;;17.20;50.87;101386.56;1036505;28;701;-65
2022/03/29 00:53:23;;;;;;;;;;;;;;;17.21;50.75;101390.09;1035437;28;1484;-65
2022/03/29 00:54:13;;;;;;;;;;;;;;;17.21;50.81;101390.09;1036569;28;746;-65
2022/03/29 00:55:05;;;;;;;;;;;;;;;17.21;50.94;101384.72;1036269;28;647;-65
2022/03/29 00:55:56;;;;;;;;;;;;;;;17.19;51.05;101386.72;1032052;28;750;-65
2022/03/29 00:56:46;;;;;;;;;;;;;;;17.20;51.12;101383.00;1032448;28;718;-64
2022/03/29 00:57:37;;;;;;;;;;;;;;;17.20;51.05;101385.69;1031789;28;631;-65
2022/03/29 00:58:27;;;;;;;;;;;;;;;17.18;51.37;101380.47;1033048;28;612;-65
2022/03/29 00:59:17;;;;;;;;;;;;;;;17.18;51.13;101379.59;1032786;28;780;-65
2022/03/29 01:00:08;;;;;;;;;;;;;;;17.20;51.26;101380.31;1032778;28;630;-64
2022/03/29 01:01:01;;;;;;;;;;;;;;;17.19;51.20;101384.00;1032893;28;717;-65
2022/03/29 01:01:52;;;;;;;;;;;;;;;17.18;51.04;101374.22;1032359;28;778;-65
2022/03/29 01:02:42;;;;;;;;;;;;;;;17.19;51.57;101382.19;1028558;28;710;-65
2022/03/29 01:03:32;;;;;;;;;;;;;;;17.18;51.11;101379.59;1029158;28;689;-65
2022/03/29 01:04:23;;;;;;;;;;;;;;;17.18;51.81;101379.59;1032225;28;623;-64
2022/03/29 01:05:13;;;;;;;;;;;;;;;17.17;51.32;101378.75;1032930;28;797;-64
2022/03/29 01:06:04;;;;;;;;;;;;;;;17.17;51.41;101383.28;1032822;28;681;-64
2022/03/29 01:06:57;;;;;;;;;;;;;;;17.16;51.33;101377.03;1033993;28;736;-65
2022/03/29 01:07:47;;;;;;;;;;;;;;;17.17;51.39;101375.22;1031924;28;670;-65
2022/03/29 01:08:38;;;;;;;;;;;;;;;17.16;50.99;101378.88;1034055;28;701;-65
2022/03/29 01:09:28;;;;;;;;;;;;;;;17.17;51.20;101375.22;1033964;28;658;-65
2022/03/29 01:10:19;;;;;;;;;;;;;;;17.17;51.18;101376.06;1028007;28;717;-65
2022/03/29 01:11:12;;;;;;;;;;;;;;;17.17;51.24;101378.75;1029067;28;659;-65
2022/03/29 01:12:02;;;;;;;;;;;;;;;17.17;51.03;101376.06;1032314;28;646;-65
2022/03/29 01:12:54;;;;;;;;;;;;;;;17.16;51.19;101366.28;1034017;28;668;-65
2022/03/29 01:13:44;;;;;;;;;;;;;;;17.16;50.90;101373.50;1033036;28;658;-65
2022/03/29 01:14:35;;;;;;;;;;;;;;;17.15;50.99;101369.09;1033951;28;638;-65
2022/03/29 01:15:26;;;;;;;;;;;;;;;17.15;51.21;101369.09;1034038;28;644;-65
2022/03/29 01:17:41;;;;;;;;;;;;;;;17.14;51.20;101373.63;1033993;28;1536;-65
2022/03/29 01:18:31;;;;;;;;;;;;;;;17.14;51.13;101370.94;1036379;28;606;-65
2022/03/29 01:19:22;;;;;;;;;;;;;;;17.13;51.53;101357.59;1036544;28;692;-65
2022/03/29 01:20:12;;;;;;;;;;;;;;;17.15;51.47;101366.41;1036283;28;697;-64
2022/03/29 01:21:02;;;;;;;;;;;;;;;17.13;51.43;101360.28;1036411;28;661;-65
2022/03/29 01:21:53;;;;;;;;;;;;;;;17.14;51.56;101362.00;1032746;28;1547;-65
2022/03/29 01:22:44;;;;;;;;;;;;;;;17.13;51.25;101355.75;1032998;28;615;-65
2022/03/29 01:23:34;;;;;;;;;;;;;;;17.12;51.21;101359.44;1036736;28;1508;-64
2022/03/29 01:24:25;;;;;;;;;;;;;;;17.12;51.64;101351.34;1036149;28;630;-64
2022/03/29 01:25:16;;;;;;;;;;;;;;;17.13;51.48;101355.75;1036730;28;731;-65
2022/03/29 01:26:06;;;;;;;;;;;;;;;17.12;51.29;101355.88;1036445;28;724;-65
2022/03/29 01:26:57;;;;;;;;;;;;;;;17.12;51.28;101353.19;1036172;28;709;-64
2022/03/29 01:27:47;;;;;;;;;;;;;;;17.12;50.81;101353.19;1036374;28;736;-64
2022/03/29 01:28:38;;;;;;;;;;;;;;;17.12;51.13;101347.78;1036836;28;771;-64
2022/03/29 01:29:28;;;;;;;;;;;;;;;17.11;51.05;101349.63;1036065;28;1591;-64
2022/03/29 01:30:18;;;;;;;;;;;;;;;17.11;50.97;101346.09;1036451;28;638;-64
2022/03/29 01:31:09;;;;;;;;;;;;;;;17.12;51.04;101348.66;1036111;28;704;-64
2022/03/29 01:31:59;;;;;;;;;;;;;;;17.10;50.88;101347.06;1036305;28;717;-65
2022/03/29 01:32:50;;;;;;;;;;;;;;;17.11;51.53;101341.56;1036171;28;689;-64
2022/03/29 01:33:40;;;;;;;;;;;;;;;17.10;51.36;101341.69;1036288;28;624;-64
2022/03/29 01:34:31;;;;;;;;;;;;;;;17.09;50.75;101337.28;1036447;28;682;-63
2022/03/29 01:35:21;;;;;;;;;;;;;;;17.09;51.69;101337.28;1036176;28;629;-64
2022/03/29 01:36:11;;;;;;;;;;;;;;;17.08;51.34;101336.44;1032534;28;736;-65
2022/03/29 01:37:02;;;;;;;;;;;;;;;17.08;51.14;101340.94;1031996;28;681;-65
2022/03/29 01:37:53;;;;;;;;;;;;;;;17.06;51.19;101338.38;1036670;28;697;-65
2022/03/29 01:38:43;;;;;;;;;;;;;;;17.08;50.87;101335.56;1036236;28;652;-66
2022/03/29 01:39:34;;;;;;;;;;;;;;;17.07;51.41;101334.72;1036344;28;717;-65
2022/03/29 01:40:24;;;;;;;;;;;;;;;17.08;51.38;101335.56;1036157;28;1890;-65
2022/03/29 01:41:15;;;;;;;;;;;;;;;17.07;51.19;101329.31;1036331;28;697;-65
2022/03/29 01:42:05;;;;;;;;;;;;;;;17.09;51.18;101321.13;1032206;28;606;-65
2022/03/29 01:42:55;;;;;;;;;;;;;;;17.06;51.24;101319.53;1032354;28;742;-65
2022/03/29 01:43:46;;;;;;;;;;;;;;;17.06;51.29;101322.22;1032207;28;713;-65
2022/03/29 01:44:37;;;;;;;;;;;;;;;17.06;50.96;101322.22;1032290;28;685;-65
2022/03/29 01:45:27;;;;;;;;;;;;;;;17.05;51.38;101325.06;1032221;28;697;-65
2022/03/29 01:46:18;;;;;;;;;;;;;;;17.06;51.19;101330.31;1032572;28;665;-65
2022/03/29 01:47:08;;;;;;;;;;;;;;;17.06;50.81;101324.06;1032169;28;587;-65
2022/03/29 01:47:59;;;;;;;;;;;;;;;17.05;50.71;101325.91;1032215;28;647;-65
2022/03/29 01:48:49;;;;;;;;;;;;;;;17.06;51.04;101326.75;1032219;28;662;-65
2022/03/29 01:49:39;;;;;;;;;;;;;;;17.05;50.74;101317.81;1032317;28;662;-65
2022/03/29 01:50:30;;;;;;;;;;;;;;;17.06;51.49;101321.38;1036087;28;1086;-65
2022/03/29 01:51:20;;;;;;;;;;;;;;;17.05;51.48;101320.53;1035832;28;760;-65
2022/03/29 01:52:11;;;;;;;;;;;;;;;17.05;51.20;101314.28;1036624;28;595;-65
2022/03/29 01:53:01;;;;;;;;;;;;;;;17.05;51.51;101320.53;1036663;28;770;-65
2022/03/29 01:53:51;;;;;;;;;;;;;;;17.04;51.30;101318.81;1036339;28;989;-64
2022/03/29 01:54:42;;;;;;;;;;;;;;;17.04;51.54;101318.81;1036154;28;668;-64
2022/03/29 01:55:32;;;;;;;;;;;;;;;17.04;51.57;101318.81;1036356;28;717;-64
2022/03/29 01:56:23;;;;;;;;;;;;;;;17.04;51.20;101316.13;1032878;28;693;-65
2022/03/29 01:57:13;;;;;;;;;;;;;;;17.02;51.31;101316.25;1032911;28;712;-64
2022/03/29 01:58:04;;;;;;;;;;;;;;;17.04;51.19;101312.56;1036808;28;710;-65
2022/03/29 01:58:54;;;;;;;;;;;;;;;17.02;51.35;101310.84;1036207;28;698;-66
2022/03/29 02:00:54;;;;;;;;;;;;;;;17.04;51.37;101312.56;1031986;28;685;-65
2022/03/29 02:01:44;;;;;;;;;;;;;;;17.02;51.32;101316.25;1032134;28;663;-65
2022/03/29 02:02:34;;;;;;;;;;;;;;;17.03;51.23;101319.78;1032240;28;690;-67
2022/03/29 02:03:25;;;;;;;;;;;;;;;17.03;51.20;101317.09;1032034;28;654;-67
2022/03/29 02:04:16;;;;;;;;;;;;;;;17.02;51.03;101317.25;1028351;28;650;-65
2022/03/29 02:05:06;;;;;;;;;;;;;;;17.00;51.40;101312.84;1028877;28;642;-64
2022/03/29 02:05:59;;;;;;;;;;;;;;;17.02;51.28;101315.38;1032087;28;650;-65
2022/03/29 02:06:49;;;;;;;;;;;;;;;17.01;51.00;101308.31;1032574;28;816;-65
2022/03/29 02:07:40;;;;;;;;;;;;;;;17.00;51.32;101309.31;1028479;28;718;-65
2022/03/29 02:08:30;;;;;;;;;;;;;;;16.98;51.52;101309.44;1028339;28;705;-65
2022/03/29 02:09:20;;;;;;;;;;;;;;;16.99;51.39;101312.97;1032703;28;654;-65
2022/03/29 02:10:11;;;;;;;;;;;;;;;16.98;51.27;101317.50;1031909;28;615;-65
2022/03/29 02:11:02;;;;;;;;;;;;;;;16.98;50.96;101304.03;1028873;28;607;-65
2022/03/29 02:11:52;;;;;;;;;;;;;;;16.99;51.37;101311.13;1030670;28;1541;-65
2022/03/29 02:12:42;;;;;;;;;;;;;;;16.99;51.12;101308.44;1035692;28;778;-64
2022/03/29 02:13:33;;;;;;;;;;;;;;;16.99;51.33;101312.97;1035969;28;649;-65
2022/03/29 02:14:23;;;;;;;;;;;;;;;16.99;51.01;101308.44;1036184;28;745;-66
2022/03/29 02:15:14;;;;;;;;;;;;;;;16.98;50.91;101312.13;1035987;28;783;-66
2022/03/29 02:16:04;;;;;;;;;;;;;;;16.97;50.97;101307.72;1036080;28;627;-66
2022/03/29 02:16:54;;;;;;;;;;;;;;;16.97;51.10;101296.09;1036223;28;658;-66
2022/03/29 02:17:45;;;;;;;;;;;;;;;16.97;51.16;101302.34;1035984;28;690;-63
2022/03/29 02:18:35;;;;;;;;;;;;;;;16.96;51.28;101295.25;1036120;28;670;-66
2022/03/29 02:19:26;;;;;;;;;;;;;;;16.96;51.11;101300.63;1035849;28;665;-66
2022/03/29 02:20:16;;;;;;;;;;;;;;;16.96;51.00;101295.25;1035646;28;581;-66
2022/03/29 02:21:07;;;;;;;;;;;;;;;16.96;51.21;101294.38;1036119;28;684;-66
2022/03/29 02:21:57;;;;;;;;;;;;;;;16.97;51.34;101296.94;1036024;28;659;-66
2022/03/29 02:22:48;;;;;;;;;;;;;;;16.96;51.26;101297.09;1036023;28;661;-67
2022/03/29 02:23:38;;;;;;;;;;;;;;;16.96;51.28;101292.56;1035979;28;1503;-66
2022/03/29 02:24:29;;;;;;;;;;;;;;;16.96;51.57;101297.94;1032112;28;1326;-66
2022/03/29 02:25:19;;;;;;;;;;;;;;;16.96;50.84;101295.25;1032150;28;705;-66
2022/03/29 02:26:10;;;;;;;;;;;;;;;16.96;51.00;101289.84;1036231;28;567;-66
2022/03/29 02:27:00;;;;;;;;;;;;;;;16.96;51.47;101297.94;1035948;28;694;-66
2022/03/29 02:27:51;;;;;;;;;;;;;;;16.96;51.47;101297.09;1036135;28;721;-66
2022/03/29 02:28:41;;;;;;;;;;;;;;;16.95;51.26;101295.38;1035998;28;586;-67
2022/03/29 02:29:33;;;;;;;;;;;;;;;16.96;51.15;101292.56;1036054;28;659;-66
2022/03/29 02:30:23;;;;;;;;;;;;;;;16.96;51.21;101294.38;1036135;28;709;-66
2022/03/29 02:31:14;;;;;;;;;;;;;;;16.95;51.26;101293.53;1035999;28;615;-67
2022/03/29 02:32:05;;;;;;;;;;;;;;;16.94;51.25;101286.44;1036182;28;740;-66
2022/03/29 02:32:56;;;;;;;;;;;;;;;16.94;51.41;101294.50;1035906;28;643;-66
2022/03/29 02:33:46;;;;;;;;;;;;;;;16.94;51.25;101286.44;1035979;28;666;-66
2022/03/29 02:34:37;;;;;;;;;;;;;;;16.94;51.36;101290.97;1035655;28;597;-66
2022/03/29 02:35:27;;;;;;;;;;;;;;;16.94;51.57;101285.59;1032724;28;732;-64
2022/03/29 02:36:17;;;;;;;;;;;;;;;16.94;51.10;101293.66;1028246;28;670;-66
2022/03/29 02:37:08;;;;;;;;;;;;;;;16.94;51.03;101289.13;1033035;28;634;-66
2022/03/29 02:37:59;;;;;;;;;;;;;;;16.93;51.68;101284.72;1036028;28;1571;-66
2022/03/29 02:38:49;;;;;;;;;;;;;;;16.93;51.21;101281.19;1035438;28;697;-66
2022/03/29 02:39:39;;;;;;;;;;;;;;;16.92;51.75;101283.03;1032276;28;662;-66
2022/03/29 02:40:30;;;;;;;;;;;;;;;16.90;51.58;101279.59;1032701;28;1969;-66
2022/03/29 02:41:20;;;;;;;;;;;;;;;16.91;51.23;101281.31;1035994;28;697;-66
2022/03/29 02:42:11;;;;;;;;;;;;;;;16.90;51.31;101284.97;1036057;28;682;-66
2022/03/29 02:43:01;;;;;;;;;;;;;;;16.90;51.24;101279.59;1036565;28;729;-66
2022/03/29 02:43:51;;;;;;;;;;;;;;;16.90;51.23;101279.59;1036105;28;697;-64
2022/03/29 02:44:42;;;;;;;;;;;;;;;16.90;51.51;101274.22;1036522;28;693;-67
2022/03/29 02:45:32;;;;;;;;;;;;;;;16.90;51.23;101281.44;1035913;28;626;-64
2022/03/29 02:46:23;;;;;;;;;;;;;;;16.90;51.32;101268.81;1036129;28;626;-65
2022/03/29 02:47:13;;;;;;;;;;;;;;;16.91;51.58;101273.22;1036033;28;653;-66
2022/03/29 02:48:03;;;;;;;;;;;;;;;16.91;51.32;101275.06;1035883;28;1602;-66
2022/03/29 02:48:54;;;;;;;;;;;;;;;16.91;51.25;101272.38;1035890;28;623;-67
2022/03/29 02:49:44;;;;;;;;;;;;;;;16.90;51.16;101267.97;1036142;28;607;-66
2022/03/29 02:50:35;;;;;;;;;;;;;;;16.90;51.64;101266.13;1036099;28;1157;-66
2022/03/29 02:51:25;;;;;;;;;;;;;;;16.89;51.20;101264.44;1035955;28;647;-66
2022/03/29 02:52:16;;;;;;;;;;;;;;;16.89;51.38;101267.13;1036061;28;713;-65
2022/03/29 02:53:08;;;;;;;;;;;;;;;16.89;51.23;101260.88;1035842;28;627;-65
2022/03/29 02:53:59;;;;;;;;;;;;;;;16.88;51.41;101261.84;1036104;28;638;-66
2022/03/29 02:54:49;;;;;;;;;;;;;;;16.87;51.32;101261.00;1035811;28;626;-65
2022/03/29 02:55:41;;;;;;;;;;;;;;;16.87;51.26;101252.94;1036061;28;692;-65
2022/03/29 02:56:31;;;;;;;;;;;;;;;16.87;51.12;101261.00;1036360;28;602;-66
2022/03/29 02:57:22;;;;;;;;;;;;;;;16.88;51.30;101254.63;1035978;28;647;-66
2022/03/29 02:58:12;;;;;;;;;;;;;;;16.87;51.24;101255.63;1035875;28;690;-66
2022/03/29 02:59:03;;;;;;;;;;;;;;;16.87;51.42;101255.63;1036048;28;702;-65
2022/03/29 02:59:53;;;;;;;;;;;;;;;16.88;51.38;101256.47;1036231;28;1491;-65
2022/03/29 03:00:44;;;;;;;;;;;;;;;16.87;51.51;101252.06;1032375;28;1977;-66
2022/03/29 03:01:34;;;;;;;;;;;;;;;16.85;51.37;101249.50;1031782;28;625;-65
2022/03/29 03:02:24;;;;;;;;;;;;;;;16.86;51.74;101251.22;1032004;28;647;-66
2022/03/29 03:03:15;;;;;;;;;;;;;;;16.87;51.29;101260.16;1031157;28;612;-66
2022/03/29 03:04:06;;;;;;;;;;;;;;;16.86;50.77;101255.75;1030899;28;616;-65
2022/03/29 03:04:56;;;;;;;;;;;;;;;16.85;51.37;101249.50;1030683;28;619;-65
2022/03/29 03:05:47;;;;;;;;;;;;;;;16.87;51.29;101252.94;1032032;28;610;-65
2022/03/29 03:06:37;;;;;;;;;;;;;;;16.85;51.40;101241.44;1031282;28;570;-63
2022/03/29 03:07:28;;;;;;;;;;;;;;;16.85;51.88;101248.66;1031946;28;651;-63
2022/03/29 03:08:19;;;;;;;;;;;;;;;16.84;51.37;101237.03;1028536;28;689;-64
2022/03/29 03:09:09;;;;;;;;;;;;;;;16.85;51.28;101241.44;1028567;28;579;-63
2022/03/29 03:10:00;;;;;;;;;;;;;;;16.85;51.21;101243.28;1031952;28;649;-63
2022/03/29 03:10:50;;;;;;;;;;;;;;;16.84;51.42;101245.09;1028683;28;635;-64
2022/03/29 03:11:40;;;;;;;;;;;;;;;16.84;51.30;101245.09;1029006;28;1493;-64
2022/03/29 03:12:31;;;;;;;;;;;;;;;16.84;51.16;101252.38;1035942;28;701;-64
2022/03/29 03:13:22;;;;;;;;;;;;;;;16.82;51.24;101244.41;1036483;28;598;-65
2022/03/29 03:14:12;;;;;;;;;;;;;;;16.83;51.29;101251.50;1036390;28;638;-65
2022/03/29 03:15:03;;;;;;;;;;;;;;;16.82;51.28;101248.94;1035947;28;654;-65
2022/03/29 03:15:53;;;;;;;;;;;;;;;16.84;51.57;101252.38;1036470;28;705;-64
2022/03/29 03:16:44;;;;;;;;;;;;;;;16.83;51.51;101250.66;1036046;28;645;-64
2022/03/29 03:17:34;;;;;;;;;;;;;;;16.81;51.76;101242.69;1036387;28;635;-64
2022/03/29 03:18:25;;;;;;;;;;;;;;;16.82;51.30;101239.03;1036045;28;673;-65
2022/03/29 03:19:15;;;;;;;;;;;;;;;16.81;51.33;101245.41;1036425;28;646;-65
2022/03/29 03:20:06;;;;;;;;;;;;;;;16.81;51.41;101244.53;1036445;28;663;-65
2022/03/29 03:20:56;;;;;;;;;;;;;;;16.81;51.03;101244.53;1036459;28;662;-65
2022/03/29 03:21:47;;;;;;;;;;;;;;;16.80;51.39;101250.91;1035999;28;652;-65
2022/03/29 03:22:37;;;;;;;;;;;;;;;16.79;51.45;101243.81;1036453;28;685;-65
2022/03/29 03:23:28;;;;;;;;;;;;;;;16.78;51.02;101242.97;1035938;28;712;-65
2022/03/29 03:24:18;;;;;;;;;;;;;;;16.78;51.41;101248.34;1031768;28;669;-65
2022/03/29 03:25:08;;;;;;;;;;;;;;;16.78;51.39;101245.66;1031870;28;732;-65
2022/03/29 03:25:59;;;;;;;;;;;;;;;16.78;51.44;101244.78;1036040;28;1559;-66
2022/03/29 03:26:49;;;;;;;;;;;;;;;16.78;50.89;101242.97;1035930;28;670;-66
2022/03/29 03:27:40;;;;;;;;;;;;;;;16.78;51.40;101245.66;1035927;28;706;-65
2022/03/29 03:28:31;;;;;;;;;;;;;;;16.78;51.24;101242.09;1035078;28;650;-66
2022/03/29 03:29:21;;;;;;;;;;;;;;;16.78;51.59;101242.97;1035838;28;647;-66
2022/03/29 03:30:12;;;;;;;;;;;;;;;16.77;51.21;101241.25;1035974;28;653;-65
2022/03/29 03:31:02;;;;;;;;;;;;;;;16.76;51.18;101236.84;1031995;28;690;-65
2022/03/29 03:31:52;;;;;;;;;;;;;;;16.76;51.48;101239.53;1033083;28;654;-66
2022/03/29 03:32:43;;;;;;;;;;;;;;;16.76;50.99;101236.00;1036439;28;650;-66
2022/03/29 03:33:33;;;;;;;;;;;;;;;16.76;51.39;101231.47;1035807;28;584;-65
2022/03/29 03:34:24;;;;;;;;;;;;;;;16.76;51.27;101238.69;1035971;28;669;-65
2022/03/29 03:35:14;;;;;;;;;;;;;;;16.78;51.16;101231.34;1035801;28;685;-65
2022/03/29 03:36:05;;;;;;;;;;;;;;;16.75;51.29;101227.06;1035849;28;1309;-66
2022/03/29 03:36:56;;;;;;;;;;;;;;;16.75;51.26;101229.75;1035808;28;687;-65
2022/03/29 03:37:47;;;;;;;;;;;;;;;16.75;51.27;101227.06;1035746;28;749;-66
2022/03/29 03:38:37;;;;;;;;;;;;;;;16.75;51.64;101221.69;1035786;28;697;-65
2022/03/29 03:39:28;;;;;;;;;;;;;;;16.75;51.35;101231.59;1035924;28;683;-65
2022/03/29 03:40:18;;;;;;;;;;;;;;;16.76;51.21;101228.78;1035688;28;640;-66
2022/03/29 03:41:09;;;;;;;;;;;;;;;16.75;51.34;101227.06;1035905;28;698;-65
2022/03/29 03:41:59;;;;;;;;;;;;;;;16.76;51.49;101223.38;1035748;28;646;-65
2022/03/29 03:42:49;;;;;;;;;;;;;;;16.75;51.46;101229.75;1036463;28;681;-66
2022/03/29 03:43:40;;;;;;;;;;;;;;;16.74;51.47;101225.34;1035778;28;1018;-64
2022/03/29 03:44:30;;;;;;;;;;;;;;;16.75;51.27;101227.06;1032242;28;642;-65
2022/03/29 03:45:22;;;;;;;;;;;;;;;16.75;51.23;101227.06;1028095;28;682;-64
2022/03/29 03:46:13;;;;;;;;;;;;;;;16.75;51.17;101234.28;1028544;28;626;-65
2022/03/29 03:47:03;;;;;;;;;;;;;;;16.74;51.33;101227.19;1031425;28;641;-65
2022/03/29 03:47:54;;;;;;;;;;;;;;;16.73;51.49;101229.03;1032270;28;643;-65
2022/03/29 03:48:45;;;;;;;;;;;;;;;16.74;51.40;101225.34;1031856;28;673;-66
2022/03/29 03:49:36;;;;;;;;;;;;;;;16.74;51.28;101222.66;1031811;28;611;-66
2022/03/29 03:50:26;;;;;;;;;;;;;;;16.73;51.40;101220.94;1031684;28;646;-66
2022/03/29 03:51:17;;;;;;;;;;;;;;;16.74;51.61;101214.59;1032354;28;645;-65
2022/03/29 03:52:07;;;;;;;;;;;;;;;16.73;51.40;101223.66;1032297;28;642;-65
2022/03/29 03:52:58;;;;;;;;;;;;;;;16.74;51.28;101224.50;1031796;28;636;-65
2022/03/29 03:53:50;;;;;;;;;;;;;;;16.72;51.51;101221.94;1027943;28;697;-65
2022/03/29 03:54:40;;;;;;;;;;;;;;;16.74;51.43;101229.88;1028482;28;589;-65
2022/03/29 03:55:31;;;;;;;;;;;;;;;16.73;51.52;101223.66;1032319;28;741;-65
2022/03/29 03:56:21;;;;;;;;;;;;;;;16.72;51.37;101227.31;1031594;28;627;-65
2022/03/29 03:57:11;;;;;;;;;;;;;;;16.72;51.04;101226.47;1031633;28;634;-65
2022/03/29 03:58:02;;;;;;;;;;;;;;;16.72;51.44;101221.09;1031877;28;659;-65
2022/03/29 03:58:52;;;;;;;;;;;;;;;16.72;51.44;101226.47;1027870;28;621;-65
2022/03/29 03:59:44;;;;;;;;;;;;;;;16.72;51.46;101223.78;1028636;28;677;-65
2022/03/29 04:00:35;;;;;;;;;;;;;;;16.71;51.80;101214.00;1032110;28;1971;-66
2022/03/29 04:01:25;;;;;;;;;;;;;;;16.72;51.27;101221.94;1031616;28;564;-65
2022/03/29 04:02:16;;;;;;;;;;;;;;;16.71;51.45;101214.00;1031858;28;646;-66
2022/03/29 04:03:06;;;;;;;;;;;;;;;16.71;51.15;101216.69;1032294;28;665;-65
2022/03/29 04:03:57;;;;;;;;;;;;;;;16.71;51.18;101214.84;1031835;28;678;-65
2022/03/29 04:04:47;;;;;;;;;;;;;;;16.71;51.39;101216.69;1032186;28;663;-66
2022/03/29 04:05:38;;;;;;;;;;;;;;;16.71;51.39;101205.91;1031743;28;658;-65
2022/03/29 04:06:28;;;;;;;;;;;;;;;16.70;51.33;101207.75;1028595;28;662;-65
2022/03/29 04:07:19;;;;;;;;;;;;;;;16.69;51.69;101206.03;1028384;28;606;-65
2022/03/29 04:08:10;;;;;;;;;;;;;;;16.71;51.14;101205.91;1028038;28;631;-65
2022/03/29 04:09:00;;;;;;;;;;;;;;;16.70;51.37;101205.06;1027365;28;583;-65
2022/03/29 04:09:51;;;;;;;;;;;;;;;16.70;51.14;101218.53;1031712;28;591;-65
2022/03/29 04:10:41;;;;;;;;;;;;;;;16.71;51.39;101209.47;1032774;28;690;-66
2022/03/29 04:11:32;;;;;;;;;;;;;;;16.71;51.25;101206.78;1031722;28;681;-65
2022/03/29 04:12:22;;;;;;;;;;;;;;;16.72;51.32;101203.09;1031602;28;626;-65
2022/03/29 04:13:12;;;;;;;;;;;;;;;16.71;51.27;101201.38;1032269;28;642;-65
2022/03/29 04:14:03;;;;;;;;;;;;;;;16.71;51.42;101204.06;1031945;28;675;-65
2022/03/29 04:14:53;;;;;;;;;;;;;;;16.72;51.03;101205.78;1033832;28;1342;-65
2022/03/29 04:15:44;;;;;;;;;;;;;;;16.72;51.18;101197.72;1035743;28;776;-65
2022/03/29 04:16:35;;;;;;;;;;;;;;;16.74;51.72;101205.66;1035353;28;677;-64
2022/03/29 04:17:26;;;;;;;;;;;;;;;16.72;51.25;101203.09;1035299;28;686;-64
2022/03/29 04:18:17;;;;;;;;;;;;;;;16.73;51.50;101202.13;1035701;28;678;-64
2022/03/29 04:19:07;;;;;;;;;;;;;;;16.73;51.00;101198.56;1035692;28;732;-65
2022/03/29 04:19:58;;;;;;;;;;;;;;;16.73;51.48;101198.56;1035714;28;697;-65
2022/03/29 04:20:48;;;;;;;;;;;;;;;16.74;51.14;101197.59;1035441;28;1894;-64
2022/03/29 04:21:39;;;;;;;;;;;;;;;16.73;51.23;101201.25;1035741;28;643;-65
2022/03/29 04:22:29;;;;;;;;;;;;;;;16.74;51.55;101200.28;1035608;28;659;-65
2022/03/29 04:23:20;;;;;;;;;;;;;;;16.74;50.95;101198.44;1031918;28;685;-65
2022/03/29 04:24:10;;;;;;;;;;;;;;;16.75;51.08;101192.06;1032995;28;720;-65
2022/03/29 04:25:00;;;;;;;;;;;;;;;16.75;51.20;101197.47;1036769;28;650;-65
2022/03/29 04:25:51;;;;;;;;;;;;;;;16.76;50.97;101196.47;1035917;28;720;-65
2022/03/29 04:26:41;;;;;;;;;;;;;;;16.75;50.65;101202.84;1035470;28;1594;-65
2022/03/29 04:27:32;;;;;;;;;;;;;;;16.76;50.83;101201.84;1035907;28;646;-65
2022/03/29 04:28:22;;;;;;;;;;;;;;;16.76;51.50;101196.47;1035497;28;1420;-65